Главная страница
METAR-TAF:

METAR-TAF

Аэропорты :

Фёрде, Норвегия

широта: 61-27N, долгота: 005-52E, высота над уровнем моря: 150 м

Текущие метеонаблюдения

Эта сводка был подготовлена 1 час и 5 минут назад, в 10:50 UTC
Ветер 5 Узел от северо-северо-восточный
Температура 16°C
Влажность 55%
Давление 1025 hPa
Видимость 10 км и более
Нет облачности ниже 1500 м, и нет кучево-дождевой облачности

METAR: ENBL 091050Z 02005KT CAVOK 16/07 Q1025

Время: 13:55 (11:55 UTC)


TAF: отсутствует

Метеонаблюдения и прогнозы для более 4000 аэропортов (сводки METAR и TAF).

Имеющиеся станции представлены на карте желтыми и красными точками.

Чтобы увидеть название станции, наведите на нее мышь.

Затем щелкните, чтобы увидеть метеонаблюдения и метеопрогнозы.

Управление картой: чтобы увеличить масштаб, щелкните зеленые кнопки с черным крестиком; чтобы уменьшить масштаб, щелкните зеленую кнопку с тире; для просмотра соседних карт щелкайте зеленые стрелки.


METAR-TAF: